Portada
METAR-TAF:

METAR-TAF

Aeroports :

New River Valley Airport

Dublin, Virgínia, Estats Units d'Amèrica

latitud: 37-08N, longitud: 080-41W, altitud: 642 m

Observació

L'informe es va fer fa 21 minuts, a les 00:55 UTC
Vent 3 kt del Sud/Sud-Est
Temperatura 25°C
Humitat 74%
Pressió 1019 hPa
Visibilitat: 11.3 km
Cel clar

METAR: KPSK 110055Z AUTO 15003KT 7SM CLR 25/20 A3008 RMK AO2 T02530197

Hora: 21:16 (01:16 UTC)


TAF: manca

Observacions i pronòstics meteorològics de més de 4000 aeroports (METAR i TAF).

Les estacions disponibles són els punts grocs i vermells al mapa.

Posi el ratolí al punt desitjat per veure el nom de l'estació.

Feu clic per veure les observacions i els pronòstics meteorològics.

Per canviar el mapa: feu clic els botons verds amb una creu de color negre per apropar; al botó verd amb un guió per allunyar la imatge; o en les fletxes verdes per a mapes adjacents.


METAR-TAF: